Pagina principale
METAR-TAF:

METAR-TAF

Aeroporti :

Aeroporto di Milano-Malpensa

Milano, Italia

latitudine: 45-37N, longitudine: 008-44E, altezza: 234 m

Osservazione

Il bollettino è stato emesso 20 minuti fa, alle 23:50 UTC
Vento 2 kt da direzioni variabili
Temperature 11°C
Umidità 94%
Pressione 1008 hPa
Visibilità 10 km o più
Poco nuvoloso ad un'altezza di 4000 ft
Nubi sparse ad un'altezza di 6000 ft

METAR: LIMC 152350Z VRB02KT 9999 FEW040 SCT060 11/10 Q1008 NOSIG

Ora: 02:10 (00:10 UTC)

Previsione

Il bollettino è stato emesso 1 ora e 10 minuti fa, alle 23:00 UTC
Previsione valida dal 16 alle 00 UTC al 17 alle 06 UTC
Vento 5 kt da direzioni variabili
Visibilità 10 km o più
Nubi sparse ad un'altezza di 3000 ft
Nuvoloso ad un'altezza di 5000 ft
Temporaneamente
dal 16 alle 18 UTC al 16 alle 24 UTC
Visibilità: 4000 m
rovesci di pioggia

TAF: LIMC 152300Z 1600/1706 VRB05KT 9999 SCT030 BKN050 TEMPO 1618/1624 4000 SHRA

Osservazioni e previsioni meteorologiche di più di 4000 aeroporti (messaggi METAR e TAF).

Le stazioni disponibili sono rappresentate dai dischi gialli e rossi sulla carta.

Puntare il mouse per vedere il nome della stazione.

Clicca sopra per visualizzare le osservazioni e previsioni meteorologiche.

Per cambiare la mappa : fare clic sui pulsanti verdi con una croce nera per ingrandire, il pulsante verde con un trattino per diminuire, o sulla freccia verde per le mappe adiacenti.


METAR-TAF: